Schedule Details


Flight Number: CTN445
Departure: Schwechat (LOWW) at 14:25
Arrival: Kastela (LDSP) at 15:45
Route: RUPET DCT GRZ DCT RADLY DCT ROKSA/N0319F230 L868 GISER L862 OKLAX

Weather Information
LOWW 080020Z 21003KT 170V240 CAVOK 18/16 Q1020 NOSIG
LDSP 080000Z AUTO 05004KT 360V090 CAVOK 26/15 Q1014
Schedule Frequency

Route Map